createdAt,value
2023-02-19T00:00:57.619Z,4.78
2023-02-19T00:02:00.460Z,3.67
2023-02-19T00:03:03.924Z,4.30
2023-02-19T00:04:18.283Z,3.35
2023-02-19T00:05:20.812Z,3.95
2023-02-19T00:06:24.594Z,3.97
2023-02-19T00:07:27.327Z,3.42
2023-02-19T00:08:34.116Z,2.78
2023-02-19T00:09:36.709Z,3.17
2023-02-19T00:10:39.352Z,3.00
2023-02-19T00:11:43.035Z,3.17
2023-02-19T00:12:45.668Z,3.50
2023-02-19T00:13:51.014Z,3.08
2023-02-19T00:14:55.154Z,2.70
2023-02-19T00:15:58.367Z,3.45
2023-02-19T00:17:01.026Z,2.80
2023-02-19T00:18:03.759Z,3.25
2023-02-19T00:19:08.695Z,2.30
2023-02-19T00:20:11.307Z,3.30
2023-02-19T00:21:14.403Z,3.67
2023-02-19T00:22:17.305Z,3.08
2023-02-19T00:23:19.923Z,3.00
2023-02-19T00:24:22.530Z,2.65
2023-02-19T00:25:25.149Z,3.45
2023-02-19T00:26:28.397Z,2.75
2023-02-19T00:27:31.068Z,2.40
2023-02-19T00:28:33.635Z,2.90
2023-02-19T00:29:36.441Z,2.25
2023-02-19T00:30:39.034Z,2.30
2023-02-19T00:31:42.412Z,2.30
2023-02-19T00:32:50.750Z,2.38
2023-02-19T00:33:57.362Z,2.47
2023-02-19T00:35:00.436Z,1.98
2023-02-19T00:36:05.043Z,2.70
2023-02-19T00:37:08.168Z,2.22
2023-02-19T00:38:10.765Z,2.28
2023-02-19T00:39:15.904Z,2.40
2023-02-19T00:40:18.837Z,2.50
2023-02-19T00:41:22.781Z,2.80
2023-02-19T00:42:26.138Z,1.83
2023-02-19T00:43:28.660Z,2.95
2023-02-19T00:44:31.568Z,1.90
2023-02-19T00:45:35.738Z,1.88
2023-02-19T00:46:43.624Z,2.60
2023-02-19T00:47:46.337Z,2.20
2023-02-19T00:48:49.229Z,2.40
2023-02-19T00:49:51.860Z,2.55
2023-02-19T00:50:54.547Z,2.90
2023-02-19T00:51:57.180Z,2.15
2023-02-19T00:52:59.796Z,3.17
2023-02-19T00:54:02.902Z,2.78
2023-02-19T00:55:06.235Z,2.47
2023-02-19T00:56:09.166Z,2.15
2023-02-19T00:57:11.677Z,2.72
2023-02-19T00:58:14.391Z,2.58
2023-02-19T00:59:17.190Z,2.85
2023-02-19T01:00:19.953Z,2.30
2023-02-19T01:01:22.805Z,2.53
2023-02-19T01:02:26.920Z,2.28
2023-02-19T01:03:30.164Z,2.72
2023-02-19T01:04:32.709Z,2.22
2023-02-19T01:05:35.358Z,1.92
2023-02-19T01:06:38.172Z,2.20
2023-02-19T01:07:40.729Z,2.63
2023-02-19T01:08:44.109Z,2.22
2023-02-19T01:09:46.910Z,2.90
2023-02-19T01:10:49.618Z,2.70
2023-02-19T01:11:52.349Z,1.77
2023-02-19T01:12:54.896Z,2.28
2023-02-19T01:13:58.688Z,2.55
2023-02-19T01:15:01.501Z,2.35
2023-02-19T01:16:06.293Z,2.25
2023-02-19T01:17:08.986Z,2.20
2023-02-19T01:18:11.811Z,2.67
2023-02-19T01:19:14.515Z,2.35
2023-02-19T01:20:17.271Z,2.58
2023-02-19T01:21:25.410Z,2.92
2023-02-19T01:22:28.182Z,2.17
2023-02-19T01:23:31.306Z,2.47
2023-02-19T01:24:34.082Z,2.40
2023-02-19T01:25:39.419Z,2.20
2023-02-19T01:26:42.288Z,2.78
2023-02-19T01:27:44.890Z,2.28
2023-02-19T01:28:48.494Z,2.35
2023-02-19T01:29:51.140Z,2.50
2023-02-19T01:30:53.997Z,1.88
2023-02-19T01:31:56.715Z,2.30
2023-02-19T01:32:59.425Z,2.55
2023-02-19T01:34:03.050Z,2.42
2023-02-19T01:35:06.200Z,3.20
2023-02-19T01:36:09.641Z,2.83
2023-02-19T01:37:12.405Z,2.78
2023-02-19T01:38:15.724Z,2.70
2023-02-19T01:39:18.363Z,2.58
2023-02-19T01:40:20.992Z,2.67
2023-02-19T01:41:25.267Z,1.90
2023-02-19T01:42:27.857Z,2.80
2023-02-19T01:43:35.595Z,2.33
2023-02-19T01:44:38.105Z,2.70
2023-02-19T01:45:44.487Z,2.53
2023-02-19T01:46:48.573Z,2.92
2023-02-19T01:48:19.207Z,2.08
2023-02-19T01:49:28.381Z,2.28
2023-02-19T01:50:33.426Z,2.63
2023-02-19T01:51:39.930Z,2.00
2023-02-19T01:52:42.893Z,2.38
2023-02-19T01:53:48.122Z,2.10
2023-02-19T01:54:51.698Z,2.92
2023-02-19T01:55:57.321Z,2.63
2023-02-19T01:57:03.359Z,2.58
2023-02-19T01:58:06.977Z,2.55
2023-02-19T01:59:09.805Z,2.67
2023-02-19T02:00:15.598Z,2.58
2023-02-19T02:01:18.265Z,2.65
2023-02-19T02:02:22.182Z,3.45
2023-02-19T02:03:24.907Z,2.88
2023-02-19T02:04:28.029Z,3.28
2023-02-19T02:05:56.872Z,2.42
2023-02-19T02:07:01.140Z,2.42
2023-02-19T02:08:23.071Z,2.67
2023-02-19T02:09:48.305Z,2.70
2023-02-19T02:10:51.603Z,2.90
2023-02-19T02:11:54.402Z,3.00
2023-02-19T02:12:58.680Z,2.85
2023-02-19T02:14:03.450Z,3.28
2023-02-19T02:15:06.635Z,2.78
2023-02-19T02:16:20.418Z,2.83
2023-02-19T02:17:29.100Z,2.97
2023-02-19T02:18:34.786Z,2.53
2023-02-19T02:20:18.982Z,3.15
2023-02-19T02:21:27.649Z,2.40
2023-02-19T02:22:48.970Z,2.92
2023-02-19T02:24:13.259Z,3.10
2023-02-19T02:25:37.366Z,2.80
2023-02-19T02:26:52.710Z,2.33
2023-02-19T02:28:35.730Z,2.50
2023-02-19T02:30:15.629Z,2.90
2023-02-19T02:31:20.396Z,2.38
2023-02-19T02:32:30.666Z,2.92
2023-02-19T02:33:41.581Z,3.25
2023-02-19T02:34:56.279Z,3.85
2023-02-19T02:36:07.344Z,2.63
2023-02-19T02:37:11.249Z,3.05
2023-02-19T02:38:15.514Z,2.33
2023-02-19T02:39:20.893Z,3.05
2023-02-19T02:40:24.086Z,2.47
2023-02-19T02:41:27.042Z,3.00
2023-02-19T02:42:30.224Z,2.95
2023-02-19T02:43:40.142Z,2.55
2023-02-19T02:45:03.359Z,2.88
2023-02-19T02:46:09.713Z,2.10
2023-02-19T02:47:32.215Z,2.80
2023-02-19T02:48:54.133Z,2.75
2023-02-19T02:50:07.847Z,2.80
2023-02-19T02:51:23.943Z,2.70
2023-02-19T02:52:57.668Z,2.42
2023-02-19T02:54:30.505Z,2.38
2023-02-19T02:55:39.443Z,2.40
2023-02-19T02:56:43.636Z,2.50
2023-02-19T02:57:46.716Z,3.35
2023-02-19T02:58:50.323Z,3.22
2023-02-19T02:59:53.301Z,2.35
2023-02-19T03:01:28.318Z,2.45
2023-02-19T03:02:31.831Z,2.47
2023-02-19T03:03:36.278Z,2.35
2023-02-19T03:05:26.058Z,3.05
2023-02-19T03:06:31.724Z,1.85
2023-02-19T03:07:39.626Z,2.15
2023-02-19T03:09:06.217Z,2.90
2023-02-19T03:10:12.127Z,2.60
2023-02-19T03:11:33.343Z,2.20
2023-02-19T03:12:56.163Z,2.60
2023-02-19T03:14:25.997Z,2.58
2023-02-19T03:15:53.073Z,2.30
2023-02-19T03:17:19.732Z,2.70
2023-02-19T03:18:42.211Z,2.28
2023-02-19T03:19:48.260Z,2.50
2023-02-19T03:20:54.607Z,2.13
2023-02-19T03:22:10.248Z,1.73
2023-02-19T03:23:13.298Z,2.78
2023-02-19T03:24:35.233Z,2.28
2023-02-19T03:25:57.307Z,2.25
2023-02-19T03:27:11.851Z,2.15
2023-02-19T03:28:41.058Z,2.20
2023-02-19T03:29:45.143Z,2.63
2023-02-19T03:30:51.253Z,2.55
2023-02-19T03:32:00.704Z,2.30
2023-02-19T03:33:09.026Z,2.15
2023-02-19T03:34:28.994Z,2.75
2023-02-19T03:35:35.305Z,2.13
2023-02-19T03:36:44.379Z,1.88
2023-02-19T03:38:02.036Z,2.45
2023-02-19T03:39:09.655Z,2.38
2023-02-19T03:40:15.368Z,2.15
2023-02-19T03:41:35.687Z,2.05
2023-02-19T03:42:42.472Z,1.77
2023-02-19T03:43:54.393Z,2.13
2023-02-19T03:45:12.566Z,2.80
2023-02-19T03:46:23.309Z,2.15
2023-02-19T03:47:33.913Z,2.50
2023-02-19T03:48:41.508Z,2.10
2023-02-19T03:50:12.221Z,2.05
2023-02-19T03:51:39.066Z,2.30
2023-02-19T03:53:35.129Z,2.85
2023-02-19T03:54:47.608Z,1.98
2023-02-19T03:56:25.006Z,2.67
2023-02-19T03:57:43.242Z,2.35
2023-02-19T03:58:49.130Z,2.22
2023-02-19T03:59:58.423Z,2.40
2023-02-19T04:01:04.240Z,2.88
2023-02-19T04:02:12.338Z,2.35
2023-02-19T04:03:31.538Z,2.10
2023-02-19T04:04:42.251Z,2.30
2023-02-19T04:05:48.265Z,2.15
2023-02-19T04:06:54.640Z,2.40
2023-02-19T04:08:06.462Z,2.05
2023-02-19T04:09:15.317Z,2.00
2023-02-19T04:10:22.279Z,2.00
2023-02-19T04:11:28.443Z,2.17
2023-02-19T04:12:41.917Z,2.30
2023-02-19T04:13:57.175Z,2.72
2023-02-19T04:15:09.106Z,3.03
2023-02-19T04:16:18.221Z,2.08
2023-02-19T04:17:25.248Z,1.83
2023-02-19T04:18:31.626Z,2.25
2023-02-19T04:19:36.916Z,1.70
2023-02-19T04:20:42.720Z,2.20
2023-02-19T04:21:45.914Z,2.30
2023-02-19T04:22:49.254Z,1.77
2023-02-19T04:23:52.156Z,2.20
2023-02-19T04:24:55.642Z,2.10
2023-02-19T04:26:00.300Z,2.28
2023-02-19T04:27:03.740Z,1.38
2023-02-19T04:28:08.123Z,1.98
2023-02-19T04:29:10.824Z,1.75
2023-02-19T04:30:14.380Z,1.80
2023-02-19T04:31:17.515Z,2.22
2023-02-19T04:32:20.157Z,1.95
2023-02-19T04:33:22.945Z,1.55
2023-02-19T04:34:25.541Z,2.03
2023-02-19T04:35:28.211Z,1.40
2023-02-19T04:36:32.349Z,1.65
2023-02-19T04:37:34.934Z,1.55
2023-02-19T04:38:37.585Z,1.60
2023-02-19T04:39:40.195Z,1.67
2023-02-19T04:40:42.829Z,2.42
2023-02-19T04:41:45.518Z,1.55
2023-02-19T04:42:48.375Z,2.15
2023-02-19T04:43:51.000Z,2.00
2023-02-19T04:44:53.668Z,1.55
2023-02-19T04:46:00.625Z,1.65
2023-02-19T04:47:04.260Z,1.98
2023-02-19T04:48:06.871Z,2.25
2023-02-19T04:49:09.430Z,1.65
2023-02-19T04:50:12.107Z,1.80
2023-02-19T04:51:15.422Z,1.80
2023-02-19T04:52:18.115Z,1.85
2023-02-19T04:53:20.716Z,2.30
2023-02-19T04:54:23.461Z,1.92
2023-02-19T04:55:26.092Z,1.88
2023-02-19T04:56:28.777Z,2.38
2023-02-19T04:57:31.561Z,1.95
2023-02-19T04:58:34.461Z,1.92
2023-02-19T04:59:37.077Z,2.00
2023-02-19T05:00:39.704Z,2.25
2023-02-19T05:01:42.594Z,1.88
2023-02-19T05:02:45.220Z,1.73
2023-02-19T05:03:47.866Z,1.85
2023-02-19T05:04:50.516Z,2.30
2023-02-19T05:05:53.205Z,1.80
2023-02-19T05:06:55.863Z,1.70
2023-02-19T05:07:58.567Z,1.65
2023-02-19T05:09:01.271Z,2.00
2023-02-19T05:10:03.943Z,1.77
2023-02-19T05:11:10.869Z,1.85
2023-02-19T05:12:13.776Z,2.38
2023-02-19T05:13:16.241Z,2.95
2023-02-19T05:14:18.877Z,2.88
2023-02-19T05:15:21.428Z,2.92
2023-02-19T05:16:24.060Z,2.20
2023-02-19T05:17:26.691Z,2.72
2023-02-19T05:18:30.867Z,2.65
2023-02-19T05:19:33.684Z,2.60
2023-02-19T05:20:36.932Z,2.33
2023-02-19T05:21:42.143Z,2.28
2023-02-19T05:22:44.923Z,2.42
2023-02-19T05:23:47.579Z,2.00
2023-02-19T05:24:50.176Z,2.38
2023-02-19T05:25:53.143Z,2.03
2023-02-19T05:26:55.751Z,2.40
2023-02-19T05:28:17.109Z,2.30
2023-02-19T05:29:19.858Z,2.35
2023-02-19T05:30:22.534Z,2.70
2023-02-19T05:31:28.025Z,2.17
2023-02-19T05:32:30.712Z,2.42
2023-02-19T05:33:33.535Z,2.72
2023-02-19T05:34:36.248Z,2.75
2023-02-19T05:35:49.383Z,2.42
2023-02-19T05:36:52.042Z,2.65
2023-02-19T05:37:54.594Z,2.92
2023-02-19T05:38:57.775Z,2.08
2023-02-19T05:40:00.781Z,2.65
2023-02-19T05:41:29.140Z,2.35
2023-02-19T05:42:32.355Z,2.83
2023-02-19T05:43:35.018Z,2.90
2023-02-19T05:44:37.653Z,2.90
2023-02-19T05:45:41.934Z,2.90
2023-02-19T05:46:44.548Z,2.72
2023-02-19T05:47:47.080Z,2.53
2023-02-19T05:48:51.001Z,2.58
2023-02-19T05:49:53.660Z,2.30
2023-02-19T05:51:14.409Z,2.75
2023-02-19T05:52:17.015Z,2.90
2023-02-19T05:53:19.665Z,3.40
2023-02-19T05:54:23.396Z,3.28
2023-02-19T05:55:26.059Z,3.15
2023-02-19T05:56:41.533Z,3.58
2023-02-19T05:57:45.939Z,3.30
2023-02-19T05:58:49.013Z,3.08
2023-02-19T05:59:51.709Z,2.58
2023-02-19T06:00:54.767Z,3.00
2023-02-19T06:01:58.516Z,3.80
2023-02-19T06:03:01.643Z,3.50
2023-02-19T06:04:04.580Z,4.60
2023-02-19T06:05:07.732Z,3.95
2023-02-19T06:06:20.750Z,4.60
2023-02-19T06:07:23.327Z,4.63
2023-02-19T06:08:25.878Z,4.63
2023-02-19T06:09:28.967Z,4.53
2023-02-19T06:10:31.695Z,4.70
2023-02-19T06:11:34.689Z,3.45
2023-02-19T06:12:38.168Z,3.90
2023-02-19T06:13:40.788Z,3.92
2023-02-19T06:14:43.432Z,3.35
2023-02-19T06:15:46.073Z,4.40
2023-02-19T06:16:48.985Z,4.18
2023-02-19T06:17:51.700Z,4.72
2023-02-19T06:18:54.325Z,4.75
2023-02-19T06:19:56.957Z,4.15
2023-02-19T06:21:06.485Z,4.20
2023-02-19T06:22:09.698Z,3.60
2023-02-19T06:23:12.481Z,3.50
2023-02-19T06:24:15.248Z,3.60
2023-02-19T06:25:18.882Z,3.35
2023-02-19T06:26:23.615Z,3.58
2023-02-19T06:27:26.327Z,5.15
2023-02-19T06:28:29.036Z,4.05
2023-02-19T06:29:32.633Z,5.65
2023-02-19T06:30:36.327Z,5.10
2023-02-19T06:31:38.989Z,5.25
2023-02-19T06:32:41.634Z,5.13
2023-02-19T06:33:46.685Z,4.85
2023-02-19T06:34:49.232Z,5.25
2023-02-19T06:35:51.885Z,4.68
2023-02-19T06:36:54.489Z,4.20
2023-02-19T06:37:57.058Z,4.15
2023-02-19T06:39:00.712Z,5.35
2023-02-19T06:40:04.094Z,3.92
2023-02-19T06:41:07.663Z,4.18
2023-02-19T06:42:10.201Z,3.80
2023-02-19T06:43:14.248Z,3.70
2023-02-19T06:44:17.095Z,4.47
2023-02-19T06:45:19.856Z,3.67
2023-02-19T06:46:22.605Z,3.90
2023-02-19T06:47:25.564Z,3.25
2023-02-19T06:48:29.807Z,4.28
2023-02-19T06:49:32.463Z,3.58
2023-02-19T06:50:35.028Z,3.70
2023-02-19T06:51:37.708Z,3.85
2023-02-19T06:52:40.523Z,3.78
2023-02-19T06:53:43.217Z,3.97
2023-02-19T06:54:46.046Z,4.07
2023-02-19T06:56:02.184Z,4.53
2023-02-19T06:57:04.919Z,3.28
2023-02-19T06:58:07.968Z,3.80
2023-02-19T06:59:13.234Z,3.40
2023-02-19T07:00:17.088Z,4.05
2023-02-19T07:01:19.872Z,4.15
2023-02-19T07:02:22.527Z,4.25
2023-02-19T07:03:26.421Z,3.88
2023-02-19T07:04:29.149Z,3.90
2023-02-19T07:05:31.737Z,3.35
2023-02-19T07:06:35.535Z,3.33
2023-02-19T07:07:38.278Z,4.03
2023-02-19T07:08:41.019Z,4.35
2023-02-19T07:09:43.561Z,3.92
2023-02-19T07:10:46.493Z,3.55
2023-02-19T07:11:49.252Z,4.22
2023-02-19T07:12:51.824Z,4.25
2023-02-19T07:13:56.696Z,4.03
2023-02-19T07:14:59.352Z,3.20
2023-02-19T07:16:08.020Z,3.85
2023-02-19T07:17:11.287Z,3.40
2023-02-19T07:18:13.930Z,3.80
2023-02-19T07:19:16.618Z,3.65
2023-02-19T07:20:19.498Z,3.75
2023-02-19T07:21:22.153Z,3.45
2023-02-19T07:22:24.914Z,3.47
2023-02-19T07:23:27.555Z,3.75
2023-02-19T07:24:30.163Z,3.15
2023-02-19T07:25:32.719Z,3.45
2023-02-19T07:26:35.676Z,3.88
2023-02-19T07:27:38.401Z,3.70
2023-02-19T07:28:41.935Z,3.75
2023-02-19T07:29:44.626Z,4.00
2023-02-19T07:30:47.311Z,3.95
2023-02-19T07:31:50.027Z,3.67
2023-02-19T07:32:52.736Z,4.15
2023-02-19T07:33:56.220Z,4.07
2023-02-19T07:34:58.834Z,4.60
2023-02-19T07:36:01.738Z,3.90
2023-02-19T07:37:04.831Z,3.70
2023-02-19T07:38:07.362Z,3.72
2023-02-19T07:39:13.587Z,4.30
2023-02-19T07:40:16.882Z,4.38
2023-02-19T07:41:19.711Z,4.20
2023-02-19T07:42:23.383Z,4.50
2023-02-19T07:43:27.722Z,4.13
2023-02-19T07:44:30.551Z,4.97
2023-02-19T07:45:33.164Z,7.13
2023-02-19T07:46:35.980Z,6.90
2023-02-19T07:47:38.680Z,6.00
2023-02-19T07:48:42.784Z,4.50
2023-02-19T07:49:45.392Z,5.07
2023-02-19T07:51:08.150Z,4.45
2023-02-19T07:52:10.795Z,4.88
2023-02-19T07:53:13.415Z,4.22
2023-02-19T07:54:16.443Z,4.25
2023-02-19T07:55:19.057Z,3.75
2023-02-19T07:56:21.844Z,3.97
2023-02-19T07:57:24.599Z,3.70
2023-02-19T07:58:27.609Z,4.10
2023-02-19T07:59:30.153Z,4.03
2023-02-19T08:00:33.015Z,4.22
2023-02-19T08:01:54.521Z,4.38
2023-02-19T08:03:00.537Z,3.90
2023-02-19T08:04:03.288Z,3.80
2023-02-19T08:05:07.391Z,4.20
2023-02-19T08:06:11.753Z,4.00
2023-02-19T08:07:14.902Z,4.05
2023-02-19T08:08:17.611Z,4.28
2023-02-19T08:09:20.273Z,3.95
2023-02-19T08:10:41.632Z,4.47
2023-02-19T08:12:03.048Z,4.22
2023-02-19T08:13:25.248Z,4.65
2023-02-19T08:14:28.047Z,4.15
2023-02-19T08:15:30.840Z,4.40
2023-02-19T08:16:43.004Z,4.30
2023-02-19T08:17:46.411Z,4.03
2023-02-19T08:18:49.530Z,3.17
2023-02-19T08:19:52.430Z,4.60
2023-02-19T08:20:56.311Z,3.45
2023-02-19T08:21:59.306Z,4.20
2023-02-19T08:23:02.157Z,3.95
2023-02-19T08:24:05.576Z,3.40
2023-02-19T08:25:08.699Z,3.47
2023-02-19T08:26:11.648Z,4.28
2023-02-19T08:27:14.364Z,3.83
2023-02-19T08:28:17.665Z,3.70
2023-02-19T08:29:20.650Z,4.35
2023-02-19T08:30:23.877Z,4.43
2023-02-19T08:31:27.581Z,4.40
2023-02-19T08:32:30.535Z,4.65
2023-02-19T08:33:33.630Z,5.55
2023-02-19T08:34:37.120Z,6.07
2023-02-19T08:35:40.160Z,5.43
2023-02-19T08:36:44.182Z,4.93
2023-02-19T08:37:46.971Z,6.28
2023-02-19T08:38:49.796Z,6.95
2023-02-19T08:39:52.688Z,5.78
2023-02-19T08:40:55.556Z,7.45
2023-02-19T08:41:58.198Z,7.68
2023-02-19T08:43:10.371Z,6.50
2023-02-19T08:44:13.093Z,4.90
2023-02-19T08:45:16.380Z,5.82
2023-02-19T08:46:19.403Z,4.68
2023-02-19T08:47:22.451Z,5.95
2023-02-19T08:48:25.345Z,4.93
2023-02-19T08:49:28.267Z,5.25
2023-02-19T08:50:30.955Z,3.88
2023-02-19T08:51:33.707Z,5.28
2023-02-19T08:52:36.823Z,5.30
2023-02-19T08:53:40.894Z,5.28
2023-02-19T08:54:43.515Z,5.78
2023-02-19T08:55:46.250Z,5.20
2023-02-19T08:56:48.913Z,5.70
2023-02-19T08:57:51.714Z,5.88
2023-02-19T08:58:54.514Z,6.82
2023-02-19T08:59:57.764Z,6.40
2023-02-19T09:01:00.649Z,5.85
2023-02-19T09:02:03.590Z,5.47
2023-02-19T09:03:06.669Z,6.88
2023-02-19T09:04:12.834Z,6.32
2023-02-19T09:05:16.047Z,4.72
2023-02-19T09:06:20.547Z,4.32
2023-02-19T09:07:23.583Z,5.05
2023-02-19T09:08:26.304Z,4.93
2023-02-19T09:09:29.126Z,5.40
2023-02-19T09:10:31.905Z,4.85
2023-02-19T09:11:34.549Z,4.45
2023-02-19T09:12:38.924Z,4.03
2023-02-19T09:13:42.156Z,4.88
2023-02-19T09:14:45.126Z,5.10
2023-02-19T09:15:48.216Z,4.75
2023-02-19T09:16:51.969Z,5.05
2023-02-19T09:17:54.725Z,5.43
2023-02-19T09:18:57.649Z,5.18
2023-02-19T09:20:00.407Z,4.15
2023-02-19T09:21:05.884Z,5.03
2023-02-19T09:22:08.743Z,4.63
2023-02-19T09:23:14.504Z,3.58
2023-02-19T09:24:17.176Z,4.82
2023-02-19T09:25:19.979Z,4.40
2023-02-19T09:26:22.817Z,4.70
2023-02-19T09:27:25.980Z,4.22
2023-02-19T09:28:28.782Z,3.85
2023-02-19T09:29:31.461Z,3.70
2023-02-19T09:30:34.178Z,5.15
2023-02-19T09:31:36.918Z,4.47
2023-02-19T09:32:39.936Z,4.43
2023-02-19T09:33:46.832Z,4.18
2023-02-19T09:34:50.206Z,3.80
2023-02-19T09:35:53.745Z,3.78
2023-02-19T09:36:56.424Z,3.97
2023-02-19T09:38:01.059Z,3.38
2023-02-19T09:39:04.765Z,4.30
2023-02-19T09:40:07.895Z,5.38
2023-02-19T09:41:25.609Z,4.60
2023-02-19T09:42:30.473Z,4.53
2023-02-19T09:43:33.493Z,4.30
2023-02-19T09:44:39.742Z,4.40
2023-02-19T09:45:42.527Z,3.88
2023-02-19T09:46:50.207Z,4.80
2023-02-19T09:47:57.891Z,3.83
2023-02-19T09:49:12.089Z,4.40
2023-02-19T09:50:18.368Z,4.13
2023-02-19T09:51:21.263Z,4.10
2023-02-19T09:52:33.222Z,3.88
2023-02-19T09:53:42.235Z,3.58
2023-02-19T09:54:45.697Z,3.80
2023-02-19T09:55:48.549Z,3.55
2023-02-19T09:56:52.416Z,4.18
2023-02-19T09:57:56.868Z,3.70
2023-02-19T09:59:00.579Z,3.72
2023-02-19T10:00:08.004Z,3.53
2023-02-19T10:01:13.181Z,3.53
2023-02-19T10:02:20.200Z,3.60
2023-02-19T10:03:32.078Z,2.92
2023-02-19T10:05:44.126Z,3.30
2023-02-19T10:06:47.575Z,3.20
2023-02-19T10:07:52.987Z,3.58
2023-02-19T10:09:05.908Z,3.47
2023-02-19T10:10:14.691Z,3.83
2023-02-19T10:11:18.177Z,4.25
2023-02-19T10:12:26.569Z,3.85
2023-02-19T10:13:51.269Z,3.78
2023-02-19T10:15:01.732Z,4.05
2023-02-19T10:16:07.109Z,3.08
2023-02-19T10:17:20.804Z,3.33
2023-02-19T10:18:25.804Z,3.03
2023-02-19T10:19:28.426Z,2.35
2023-02-19T10:20:31.158Z,3.70
2023-02-19T10:21:33.771Z,3.00
2023-02-19T10:22:38.342Z,3.78
2023-02-19T10:23:41.653Z,3.60
2023-02-19T10:24:46.364Z,3.40
2023-02-19T10:25:57.888Z,3.70
2023-02-19T10:27:01.086Z,3.05
2023-02-19T10:28:03.995Z,3.08
2023-02-19T10:29:06.976Z,2.50
2023-02-19T10:30:23.258Z,2.75
2023-02-19T10:31:26.676Z,2.70
2023-02-19T10:32:29.821Z,3.00
2023-02-19T10:33:32.644Z,3.22
2023-02-19T10:34:35.415Z,3.42
2023-02-19T10:36:05.128Z,3.50
2023-02-19T10:37:16.054Z,3.15
2023-02-19T10:38:19.494Z,6.95
2023-02-19T10:39:22.074Z,6.32
2023-02-19T10:40:28.631Z,6.50
2023-02-19T10:41:31.349Z,5.25
2023-02-19T10:42:34.002Z,4.05
2023-02-19T10:43:40.061Z,3.92
2023-02-19T10:44:46.009Z,3.28
2023-02-19T10:45:50.496Z,3.50
2023-02-19T10:46:57.650Z,3.63
2023-02-19T10:48:00.859Z,5.00
2023-02-19T10:49:05.844Z,5.35
2023-02-19T10:50:25.739Z,6.05
2023-02-19T10:51:40.410Z,4.80
2023-02-19T10:52:43.353Z,4.90
2023-02-19T10:54:04.536Z,4.93
2023-02-19T10:55:28.507Z,5.22
2023-02-19T10:56:31.532Z,4.15
2023-02-19T10:57:35.233Z,3.97
2023-02-19T10:58:40.337Z,4.07
2023-02-19T11:00:01.160Z,4.20
2023-02-19T11:01:10.447Z,3.83
2023-02-19T11:02:18.516Z,2.95
2023-02-19T11:03:22.654Z,3.15
2023-02-19T11:04:27.616Z,3.05
2023-02-19T11:05:30.275Z,3.90
2023-02-19T11:06:34.933Z,4.22
2023-02-19T11:07:39.430Z,4.88
2023-02-19T11:08:57.858Z,4.18
2023-02-19T11:10:01.119Z,4.80
2023-02-19T11:11:04.047Z,5.22
2023-02-19T11:12:09.484Z,5.00
2023-02-19T11:13:18.324Z,4.63
2023-02-19T11:14:24.249Z,4.00
2023-02-19T11:15:35.238Z,4.13
2023-02-19T11:16:44.651Z,4.85
2023-02-19T11:18:14.953Z,4.25
2023-02-19T11:19:37.993Z,5.47
2023-02-19T11:21:23.221Z,4.10
2023-02-19T11:22:26.477Z,5.45
2023-02-19T11:23:32.791Z,5.28
2023-02-19T11:24:37.644Z,5.07
2023-02-19T11:25:46.706Z,5.32
2023-02-19T11:26:49.355Z,4.40
2023-02-19T11:28:16.406Z,4.85
2023-02-19T11:29:23.184Z,6.30
2023-02-19T11:30:36.104Z,5.47
2023-02-19T11:31:39.366Z,5.35
2023-02-19T11:32:42.255Z,5.47
2023-02-19T11:34:13.947Z,5.03
2023-02-19T11:35:23.029Z,4.70
2023-02-19T11:36:36.591Z,5.32
2023-02-19T11:38:02.482Z,5.50
2023-02-19T11:39:17.234Z,4.40
2023-02-19T11:40:21.746Z,5.63
2023-02-19T11:41:44.752Z,5.85
2023-02-19T11:43:22.901Z,4.38
2023-02-19T11:44:42.241Z,3.00
2023-02-19T11:45:52.353Z,2.80
2023-02-19T11:47:06.167Z,3.65
2023-02-19T11:48:24.043Z,3.72
2023-02-19T11:49:40.366Z,4.70
2023-02-19T11:51:04.919Z,4.82
2023-02-19T11:52:22.457Z,4.68
2023-02-19T11:53:28.987Z,4.82
2023-02-19T11:54:54.136Z,4.95
2023-02-19T11:55:59.676Z,3.63
2023-02-19T11:57:09.072Z,2.63
2023-02-19T11:58:23.150Z,3.35
2023-02-19T11:59:41.802Z,2.80
2023-02-19T12:01:19.539Z,4.00
2023-02-19T12:02:54.255Z,2.95
2023-02-19T12:04:32.295Z,3.30
2023-02-19T12:05:42.746Z,2.83
2023-02-19T12:06:45.262Z,2.80
2023-02-19T12:08:49.840Z,3.40
2023-02-19T12:10:12.067Z,3.30
2023-02-19T12:11:24.915Z,4.75
2023-02-19T12:12:45.542Z,3.97
2023-02-19T12:14:00.130Z,2.95
2023-02-19T12:15:11.290Z,2.50
2023-02-19T12:16:39.149Z,3.13
2023-02-19T12:18:21.399Z,3.17
2023-02-19T12:19:45.299Z,3.50
2023-02-19T12:21:12.218Z,3.97
2023-02-19T12:22:21.120Z,3.25
2023-02-19T12:23:45.617Z,4.50
2023-02-19T12:24:55.916Z,4.55
2023-02-19T12:26:19.971Z,3.55
2023-02-19T12:27:46.419Z,3.20
2023-02-19T12:29:02.102Z,2.85
2023-02-19T12:30:19.755Z,2.83
2023-02-19T12:31:35.149Z,2.53
2023-02-19T12:32:37.924Z,2.83
2023-02-19T12:33:46.453Z,3.03
2023-02-19T12:35:28.281Z,3.13
2023-02-19T12:36:51.979Z,2.83
2023-02-19T12:38:25.936Z,3.00
2023-02-19T12:39:37.621Z,3.97
2023-02-19T12:41:10.503Z,3.72
2023-02-19T12:42:37.765Z,4.53
2023-02-19T12:43:54.850Z,5.47
2023-02-19T12:45:00.337Z,3.63
2023-02-19T12:46:21.666Z,3.65
2023-02-19T12:47:38.449Z,3.22
2023-02-19T12:48:48.689Z,2.72
2023-02-19T12:50:07.472Z,3.45
2023-02-19T12:51:39.172Z,3.35
2023-02-19T12:52:43.602Z,2.85
2023-02-19T12:53:58.690Z,2.88
2023-02-19T12:55:12.781Z,3.63
2023-02-19T12:56:21.343Z,4.28
2023-02-19T12:57:30.196Z,3.63
2023-02-19T12:58:38.186Z,2.58
2023-02-19T12:59:56.211Z,2.40
2023-02-19T13:00:59.839Z,2.67
2023-02-19T13:02:27.369Z,2.65
2023-02-19T13:03:38.322Z,2.13
2023-02-19T13:04:47.751Z,2.72
2023-02-19T13:05:55.943Z,2.60
2023-02-19T13:07:17.461Z,2.70
2023-02-19T13:08:22.629Z,2.17
2023-02-19T13:09:25.018Z,2.17
2023-02-19T13:10:37.788Z,2.25
2023-02-19T13:11:49.239Z,2.17
2023-02-19T13:12:52.468Z,2.47
2023-02-19T13:14:02.197Z,2.58
2023-02-19T13:15:14.400Z,2.28
2023-02-19T13:16:19.675Z,2.10
2023-02-19T13:17:49.523Z,2.58
2023-02-19T13:19:00.939Z,1.65
2023-02-19T13:20:25.297Z,1.70
2023-02-19T13:21:51.306Z,2.38
2023-02-19T13:23:35.706Z,2.13
2023-02-19T13:24:41.047Z,1.58
2023-02-19T13:26:10.585Z,2.70
2023-02-19T13:27:45.100Z,2.97
2023-02-19T13:29:06.071Z,2.47
2023-02-19T13:30:20.557Z,2.03
2023-02-19T13:31:54.057Z,2.03
2023-02-19T13:33:12.180Z,2.28
2023-02-19T13:34:19.138Z,1.80
2023-02-19T13:35:55.265Z,1.60
2023-02-19T13:36:59.238Z,1.50
2023-02-19T13:38:03.693Z,2.20
2023-02-19T13:39:06.848Z,2.15
2023-02-19T13:40:35.521Z,2.08
2023-02-19T13:41:51.596Z,2.20
2023-02-19T13:42:56.265Z,2.65
2023-02-19T13:44:02.429Z,2.67
2023-02-19T13:45:07.046Z,2.65
2023-02-19T13:46:12.348Z,3.00
2023-02-19T13:47:51.550Z,2.35
2023-02-19T13:49:28.248Z,1.92
2023-02-19T13:50:33.168Z,1.80
2023-02-19T13:51:35.692Z,2.28
2023-02-19T13:52:39.592Z,3.05
2023-02-19T13:53:45.051Z,2.90
2023-02-19T13:54:47.556Z,2.78
2023-02-19T13:55:52.749Z,3.25
2023-02-19T13:57:22.855Z,3.63
2023-02-19T13:58:56.277Z,3.58
2023-02-19T14:00:00.246Z,2.75
2023-02-19T14:01:14.120Z,2.00
2023-02-19T14:02:22.842Z,2.75
2023-02-19T14:03:39.019Z,2.20
2023-02-19T14:04:41.489Z,2.28
2023-02-19T14:06:06.746Z,2.30
2023-02-19T14:07:09.132Z,2.33
2023-02-19T14:08:11.711Z,1.98
2023-02-19T14:09:43.843Z,2.35
2023-02-19T14:10:46.729Z,3.13
2023-02-19T14:11:49.484Z,3.58
2023-02-19T14:12:52.120Z,3.70
2023-02-19T14:13:55.126Z,3.63
2023-02-19T14:14:57.958Z,3.75
2023-02-19T14:16:00.500Z,3.60
2023-02-19T14:17:10.669Z,2.97
2023-02-19T14:18:41.835Z,3.22
2023-02-19T14:19:57.792Z,3.13
2023-02-19T14:21:14.697Z,3.42
2023-02-19T14:22:48.851Z,3.17
2023-02-19T14:23:54.112Z,2.90
2023-02-19T14:24:58.024Z,3.08
2023-02-19T14:26:02.508Z,2.72
2023-02-19T14:27:05.241Z,3.70
2023-02-19T14:28:10.642Z,3.55
2023-02-19T14:29:15.054Z,3.10
2023-02-19T14:30:18.200Z,3.60
2023-02-19T14:31:35.818Z,4.10
2023-02-19T14:32:40.589Z,3.25
2023-02-19T14:33:55.600Z,3.70
2023-02-19T14:34:58.359Z,3.72
2023-02-19T14:36:21.766Z,3.53
2023-02-19T14:37:26.115Z,3.55
2023-02-19T14:38:43.946Z,4.40
2023-02-19T14:39:47.202Z,3.50
2023-02-19T14:40:50.310Z,3.55
2023-02-19T14:42:07.206Z,4.40
2023-02-19T14:43:15.678Z,4.28
2023-02-19T14:44:25.091Z,3.63
2023-02-19T14:45:28.703Z,3.83
2023-02-19T14:46:37.717Z,3.40
2023-02-19T14:47:40.344Z,4.82
2023-02-19T14:48:47.961Z,4.85
2023-02-19T14:49:53.149Z,5.22
2023-02-19T14:51:03.649Z,5.25
2023-02-19T14:52:10.519Z,4.97
2023-02-19T14:53:16.046Z,5.55
2023-02-19T14:54:48.084Z,4.78
2023-02-19T14:55:51.857Z,5.18
2023-02-19T14:56:54.905Z,3.42
2023-02-19T14:57:59.394Z,4.28
2023-02-19T14:59:22.200Z,2.67
2023-02-19T15:00:26.537Z,2.30
2023-02-19T15:01:29.254Z,2.65
2023-02-19T15:02:33.455Z,2.08
2023-02-19T15:03:38.043Z,2.45
2023-02-19T15:04:40.724Z,4.78
2023-02-19T15:05:45.517Z,4.57
2023-02-19T15:06:48.385Z,4.40
2023-02-19T15:07:51.990Z,3.78
2023-02-19T15:08:59.539Z,3.95